sensor_id;sensor_type;location;lat;lon;timestamp;pressure;altitude;pressure_sealevel;temperature;humidity
74561;BME280;62979;55.720;37.606;2023-09-07T00:01:36;100178.72;;;15.36;48.60
74561;BME280;62979;55.720;37.606;2023-09-07T00:04:03;100175.00;;;15.41;48.22
74561;BME280;62979;55.720;37.606;2023-09-07T00:06:32;100186.88;;;15.53;48.05
74561;BME280;62979;55.720;37.606;2023-09-07T00:08:59;100184.75;;;15.39;47.73
74561;BME280;62979;55.720;37.606;2023-09-07T00:11:26;100194.97;;;15.49;48.31
74561;BME280;62979;55.720;37.606;2023-09-07T00:13:53;100182.47;;;15.54;47.92
74561;BME280;62979;55.720;37.606;2023-09-07T00:16:22;100195.84;;;15.48;48.11
74561;BME280;62979;55.720;37.606;2023-09-07T00:18:49;100187.81;;;15.51;47.79
74561;BME280;62979;55.720;37.606;2023-09-07T00:21:16;100178.75;;;15.11;48.12
74561;BME280;62979;55.720;37.606;2023-09-07T00:23:42;100195.03;;;15.22;48.92
74561;BME280;62979;55.720;37.606;2023-09-07T00:26:09;100191.19;;;15.31;48.34
74561;BME280;62979;55.720;37.606;2023-09-07T00:28:37;100203.53;;;15.05;48.96
74561;BME280;62979;55.720;37.606;2023-09-07T00:31:04;100193.47;;;14.91;48.91
74561;BME280;62979;55.720;37.606;2023-09-07T00:33:33;100197.88;;;14.91;49.19
74561;BME280;62979;55.720;37.606;2023-09-07T00:36:01;100206.63;;;14.65;49.79
74561;BME280;62979;55.720;37.606;2023-09-07T00:38:28;100214.19;;;14.47;49.98
74561;BME280;62979;55.720;37.606;2023-09-07T00:40:55;100204.59;;;14.18;50.90
74561;BME280;62979;55.720;37.606;2023-09-07T00:43:22;100211.53;;;14.21;51.02
74561;BME280;62979;55.720;37.606;2023-09-07T00:45:49;100204.63;;;14.17;50.92
74561;BME280;62979;55.720;37.606;2023-09-07T00:48:17;100214.59;;;14.35;50.55
74561;BME280;62979;55.720;37.606;2023-09-07T00:50:45;100223.59;;;14.28;51.17
74561;BME280;62979;55.720;37.606;2023-09-07T00:53:13;100219.25;;;14.27;51.44
74561;BME280;62979;55.720;37.606;2023-09-07T00:55:41;100222.81;;;13.96;51.88
74561;BME280;62979;55.720;37.606;2023-09-07T00:58:08;100232.94;;;14.08;51.82
74561;BME280;62979;55.720;37.606;2023-09-07T01:00:36;100224.88;;;14.15;52.56
74561;BME280;62979;55.720;37.606;2023-09-07T01:03:04;100227.41;;;14.18;52.09
74561;BME280;62979;55.720;37.606;2023-09-07T01:05:34;100236.34;;;14.40;52.20
74561;BME280;62979;55.720;37.606;2023-09-07T01:08:16;100243.31;;;14.15;52.58
74561;BME280;62979;55.720;37.606;2023-09-07T01:10:47;100236.19;;;14.17;53.12
74561;BME280;62979;55.720;37.606;2023-09-07T01:13:14;100237.09;;;14.17;52.99
74561;BME280;62979;55.720;37.606;2023-09-07T01:15:41;100246.72;;;14.17;52.92
74561;BME280;62979;55.720;37.606;2023-09-07T01:18:09;100246.81;;;13.84;54.08
74561;BME280;62979;55.720;37.606;2023-09-07T01:20:39;100241.41;;;13.59;54.97
74561;BME280;62979;55.720;37.606;2023-09-07T01:23:11;100243.09;;;13.61;55.03
74561;BME280;62979;55.720;37.606;2023-09-07T01:25:40;100249.19;;;13.93;54.64
74561;BME280;62979;55.720;37.606;2023-09-07T01:28:08;100243.66;;;14.02;54.25
74561;BME280;62979;55.720;37.606;2023-09-07T01:30:36;100254.72;;;13.84;54.58
74561;BME280;62979;55.720;37.606;2023-09-07T01:33:04;100240.66;;;13.85;55.02
74561;BME280;62979;55.720;37.606;2023-09-07T01:35:32;100246.13;;;14.07;54.51
74561;BME280;62979;55.720;37.606;2023-09-07T01:38:00;100251.59;;;14.01;54.57
74561;BME280;62979;55.720;37.606;2023-09-07T01:40:29;100250.53;;;14.06;54.44
74561;BME280;62979;55.720;37.606;2023-09-07T01:42:56;100244.66;;;13.68;55.39
74561;BME280;62979;55.720;37.606;2023-09-07T01:45:23;100246.19;;;13.76;55.71
74561;BME280;62979;55.720;37.606;2023-09-07T01:47:50;100250.66;;;13.72;55.69
74561;BME280;62979;55.720;37.606;2023-09-07T01:50:17;100264.13;;;13.93;55.29
74561;BME280;62979;55.720;37.606;2023-09-07T01:52:46;100255.03;;;14.03;55.27
74561;BME280;62979;55.720;37.606;2023-09-07T01:55:14;100261.75;;;14.13;54.93
74561;BME280;62979;55.720;37.606;2023-09-07T01:57:43;100271.50;;;14.09;54.93
74561;BME280;62979;55.720;37.606;2023-09-07T02:00:11;100274.56;;;13.94;55.15
74561;BME280;62979;55.720;37.606;2023-09-07T02:02:39;100272.53;;;14.04;55.34
74561;BME280;62979;55.720;37.606;2023-09-07T02:05:06;100266.28;;;14.08;55.02
74561;BME280;62979;55.720;37.606;2023-09-07T02:07:33;100275.75;;;13.84;55.45
74561;BME280;62979;55.720;37.606;2023-09-07T02:10:01;100274.19;;;13.77;56.02
74561;BME280;62979;55.720;37.606;2023-09-07T02:12:28;100277.91;;;13.99;55.92
74561;BME280;62979;55.720;37.606;2023-09-07T02:15:00;100275.38;;;14.26;55.13
74561;BME280;62979;55.720;37.606;2023-09-07T02:17:28;100286.44;;;14.37;54.60
74561;BME280;62979;55.720;37.606;2023-09-07T02:19:56;100280.81;;;14.49;54.37
74561;BME280;62979;55.720;37.606;2023-09-07T02:22:23;100279.63;;;14.60;53.83
74561;BME280;62979;55.720;37.606;2023-09-07T02:24:50;100277.50;;;14.43;54.55
74561;BME280;62979;55.720;37.606;2023-09-07T02:27:17;100279.28;;;14.42;54.13
74561;BME280;62979;55.720;37.606;2023-09-07T02:29:44;100283.00;;;14.35;54.59
74561;BME280;62979;55.720;37.606;2023-09-07T02:32:12;100284.69;;;14.38;54.67
74561;BME280;62979;55.720;37.606;2023-09-07T02:34:39;100284.63;;;14.39;54.44
74561;BME280;62979;55.720;37.606;2023-09-07T02:37:06;100286.63;;;14.31;54.45
74561;BME280;62979;55.720;37.606;2023-09-07T02:39:32;100293.13;;;14.19;54.42
74561;BME280;62979;55.720;37.606;2023-09-07T02:41:59;100297.72;;;14.12;54.81
74561;BME280;62979;55.720;37.606;2023-09-07T02:44:26;100294.59;;;14.29;54.93
74561;BME280;62979;55.720;37.606;2023-09-07T02:46:54;100302.91;;;14.44;54.38
74561;BME280;62979;55.720;37.606;2023-09-07T02:49:22;100300.19;;;14.47;54.44
74561;BME280;62979;55.720;37.606;2023-09-07T02:51:49;100314.06;;;14.52;53.92
74561;BME280;62979;55.720;37.606;2023-09-07T02:54:16;100316.13;;;14.42;54.52
74561;BME280;62979;55.720;37.606;2023-09-07T02:56:43;100311.94;;;14.35;54.36
74561;BME280;62979;55.720;37.606;2023-09-07T02:59:10;100300.47;;;14.38;54.11
74561;BME280;62979;55.720;37.606;2023-09-07T03:01:38;100313.44;;;14.44;54.33
74561;BME280;62979;55.720;37.606;2023-09-07T03:04:05;100310.94;;;14.39;53.80
74561;BME280;62979;55.720;37.606;2023-09-07T03:06:34;100325.09;;;14.35;54.28
74561;BME280;62979;55.720;37.606;2023-09-07T03:09:01;100330.56;;;14.29;54.17
74561;BME280;62979;55.720;37.606;2023-09-07T03:11:32;100319.75;;;14.38;53.83
74561;BME280;62979;55.720;37.606;2023-09-07T03:14:00;100322.13;;;14.46;54.13
74561;BME280;62979;55.720;37.606;2023-09-07T03:16:27;100332.28;;;14.30;54.04
74561;BME280;62979;55.720;37.606;2023-09-07T03:18:55;100320.31;;;14.20;54.20
74561;BME280;62979;55.720;37.606;2023-09-07T03:21:22;100338.22;;;14.37;54.29
74561;BME280;62979;55.720;37.606;2023-09-07T03:23:56;100334.09;;;14.28;53.94
74561;BME280;62979;55.720;37.606;2023-09-07T03:26:23;100334.03;;;14.00;54.69
74561;BME280;62979;55.720;37.606;2023-09-07T03:28:50;100332.13;;;13.74;55.72
74561;BME280;62979;55.720;37.606;2023-09-07T03:31:17;100329.50;;;13.74;55.21
74561;BME280;62979;55.720;37.606;2023-09-07T03:33:45;100339.78;;;13.81;55.74
74561;BME280;62979;55.720;37.606;2023-09-07T03:36:12;100334.78;;;14.03;55.07
74561;BME280;62979;55.720;37.606;2023-09-07T03:38:40;100340.03;;;14.05;54.70
74561;BME280;62979;55.720;37.606;2023-09-07T03:41:08;100338.69;;;13.90;54.99
74561;BME280;62979;55.720;37.606;2023-09-07T03:43:35;100346.69;;;13.85;55.32
74561;BME280;62979;55.720;37.606;2023-09-07T03:46:02;100353.31;;;13.99;54.53
74561;BME280;62979;55.720;37.606;2023-09-07T03:48:29;100349.69;;;13.72;55.11
74561;BME280;62979;55.720;37.606;2023-09-07T03:50:56;100354.84;;;14.07;55.49
74561;BME280;62979;55.720;37.606;2023-09-07T03:53:23;100358.84;;;14.21;54.17
74561;BME280;62979;55.720;37.606;2023-09-07T03:55:50;100368.16;;;14.32;54.14
74561;BME280;62979;55.720;37.606;2023-09-07T03:58:19;100363.94;;;14.27;54.13
74561;BME280;62979;55.720;37.606;2023-09-07T04:00:46;100359.28;;;14.37;53.85
74561;BME280;62979;55.720;37.606;2023-09-07T04:03:13;100360.75;;;14.16;53.57
74561;BME280;62979;55.720;37.606;2023-09-07T04:05:40;100363.47;;;14.12;54.73
74561;BME280;62979;55.720;37.606;2023-09-07T04:08:07;100363.47;;;14.12;53.98
74561;BME280;62979;55.720;37.606;2023-09-07T04:10:36;100374.16;;;14.36;53.61
74561;BME280;62979;55.720;37.606;2023-09-07T04:13:04;100373.69;;;14.53;55.47
74561;BME280;62979;55.720;37.606;2023-09-07T04:15:33;100374.03;;;14.72;54.43
74561;BME280;62979;55.720;37.606;2023-09-07T04:18:01;100375.94;;;14.67;53.43
74561;BME280;62979;55.720;37.606;2023-09-07T04:20:28;100378.28;;;14.76;52.72
74561;BME280;62979;55.720;37.606;2023-09-07T04:22:55;100383.66;;;14.73;52.03
74561;BME280;62979;55.720;37.606;2023-09-07T04:25:22;100385.75;;;14.90;52.91
74561;BME280;62979;55.720;37.606;2023-09-07T04:27:49;100401.06;;;14.77;52.39
74561;BME280;62979;55.720;37.606;2023-09-07T04:30:16;100397.59;;;14.45;52.50
74561;BME280;62979;55.720;37.606;2023-09-07T04:32:44;100396.88;;;14.09;53.08
74561;BME280;62979;55.720;37.606;2023-09-07T04:35:11;100414.88;;;14.55;53.27
74561;BME280;62979;55.720;37.606;2023-09-07T04:37:38;100398.69;;;14.69;51.95
74561;BME280;62979;55.720;37.606;2023-09-07T04:40:09;100400.28;;;14.44;52.03
74561;BME280;62979;55.720;37.606;2023-09-07T04:42:37;100396.00;;;14.40;52.99
74561;BME280;62979;55.720;37.606;2023-09-07T04:45:04;100405.34;;;14.81;52.29
74561;BME280;62979;55.720;37.606;2023-09-07T04:47:32;100401.00;;;15.08;52.90
74561;BME280;62979;55.720;37.606;2023-09-07T04:50:00;100406.47;;;15.29;51.99
74561;BME280;62979;55.720;37.606;2023-09-07T04:52:27;100414.75;;;15.45;50.64
74561;BME280;62979;55.720;37.606;2023-09-07T04:54:54;100411.88;;;14.97;51.43
74561;BME280;62979;55.720;37.606;2023-09-07T04:57:21;100416.13;;;15.02;51.72
74561;BME280;62979;55.720;37.606;2023-09-07T04:59:47;100418.63;;;14.78;51.55
74561;BME280;62979;55.720;37.606;2023-09-07T05:02:14;100417.50;;;14.55;51.93
74561;BME280;62979;55.720;37.606;2023-09-07T05:04:42;100410.75;;;14.76;53.13
74561;BME280;62979;55.720;37.606;2023-09-07T05:07:11;100418.66;;;14.45;52.45
74561;BME280;62979;55.720;37.606;2023-09-07T05:09:37;100411.06;;;14.03;53.81
74561;BME280;62979;55.720;37.606;2023-09-07T05:12:05;100424.72;;;14.16;53.72
74561;BME280;62979;55.720;37.606;2023-09-07T05:14:32;100414.94;;;14.54;52.13
74561;BME280;62979;55.720;37.606;2023-09-07T05:16:59;100414.47;;;14.38;52.56
74561;BME280;62979;55.720;37.606;2023-09-07T05:19:27;100411.97;;;14.02;53.10
74561;BME280;62979;55.720;37.606;2023-09-07T05:21:53;100416.13;;;14.42;52.91
74561;BME280;62979;55.720;37.606;2023-09-07T05:24:22;100421.19;;;14.48;52.70
74561;BME280;62979;55.720;37.606;2023-09-07T05:26:49;100424.22;;;14.34;52.43
74561;BME280;62979;55.720;37.606;2023-09-07T05:29:16;100422.84;;;14.52;53.45
74561;BME280;62979;55.720;37.606;2023-09-07T05:31:43;100419.38;;;14.82;52.58
74561;BME280;62979;55.720;37.606;2023-09-07T05:34:10;100416.47;;;14.91;51.46
74561;BME280;62979;55.720;37.606;2023-09-07T05:36:37;100425.22;;;15.19;51.97
74561;BME280;62979;55.720;37.606;2023-09-07T05:39:04;100426.59;;;15.31;51.35
74561;BME280;62979;55.720;37.606;2023-09-07T05:41:32;100424.25;;;14.94;50.95
74561;BME280;62979;55.720;37.606;2023-09-07T05:43:59;100427.31;;;14.80;51.41
74561;BME280;62979;55.720;37.606;2023-09-07T05:46:25;100428.03;;;15.41;51.82
74561;BME280;62979;55.720;37.606;2023-09-07T05:48:52;100432.66;;;15.61;50.71
74561;BME280;62979;55.720;37.606;2023-09-07T05:51:19;100422.38;;;15.80;49.86
74561;BME280;62979;55.720;37.606;2023-09-07T05:53:46;100416.16;;;15.55;49.51
74561;BME280;62979;55.720;37.606;2023-09-07T05:56:13;100424.28;;;15.49;50.15
74561;BME280;62979;55.720;37.606;2023-09-07T05:58:41;100422.09;;;15.61;50.04
74561;BME280;62979;55.720;37.606;2023-09-07T06:01:08;100429.59;;;15.75;50.61
74561;BME280;62979;55.720;37.606;2023-09-07T06:03:35;100428.44;;;15.56;49.25
74561;BME280;62979;55.720;37.606;2023-09-07T06:06:04;100427.41;;;15.60;50.45
74561;BME280;62979;55.720;37.606;2023-09-07T06:08:31;100447.53;;;15.36;49.54
74561;BME280;62979;55.720;37.606;2023-09-07T06:10:58;100444.84;;;15.37;50.29
74561;BME280;62979;55.720;37.606;2023-09-07T06:13:26;100440.69;;;15.57;50.21
74561;BME280;62979;55.720;37.606;2023-09-07T06:15:54;100444.63;;;15.72;49.20
74561;BME280;62979;55.720;37.606;2023-09-07T06:18:21;100451.44;;;15.51;49.88
74561;BME280;62979;55.720;37.606;2023-09-07T06:20:48;100456.72;;;15.51;50.33
74561;BME280;62979;55.720;37.606;2023-09-07T06:23:15;100453.38;;;15.46;50.85
74561;BME280;62979;55.720;37.606;2023-09-07T06:25:41;100451.13;;;15.33;50.29
74561;BME280;62979;55.720;37.606;2023-09-07T06:28:08;100457.09;;;15.38;50.27
74561;BME280;62979;55.720;37.606;2023-09-07T06:30:35;100457.22;;;15.35;50.01
74561;BME280;62979;55.720;37.606;2023-09-07T06:33:04;100465.03;;;15.65;49.90
74561;BME280;62979;55.720;37.606;2023-09-07T06:35:31;100465.19;;;15.87;49.86
74561;BME280;62979;55.720;37.606;2023-09-07T06:37:58;100463.94;;;15.99;48.85
74561;BME280;62979;55.720;37.606;2023-09-07T06:40:24;100457.91;;;15.95;49.17
74561;BME280;62979;55.720;37.606;2023-09-07T06:42:52;100464.84;;;15.73;49.26
74561;BME280;62979;55.720;37.606;2023-09-07T06:45:19;100474.84;;;15.88;49.39
74561;BME280;62979;55.720;37.606;2023-09-07T06:47:49;100470.81;;;15.50;49.92
74561;BME280;62979;55.720;37.606;2023-09-07T06:50:18;100461.84;;;15.55;49.33
74561;BME280;62979;55.720;37.606;2023-09-07T06:52:46;100460.94;;;15.28;49.53
74561;BME280;62979;55.720;37.606;2023-09-07T06:55:13;100461.59;;;15.36;49.51
74561;BME280;62979;55.720;37.606;2023-09-07T06:57:40;100464.38;;;15.32;50.30
74561;BME280;62979;55.720;37.606;2023-09-07T07:00:08;100468.59;;;15.36;49.14
74561;BME280;62979;55.720;37.606;2023-09-07T07:02:37;100466.97;;;15.60;49.41
74561;BME280;62979;55.720;37.606;2023-09-07T07:05:05;100471.81;;;15.74;48.79
74561;BME280;62979;55.720;37.606;2023-09-07T07:07:35;100469.00;;;16.05;48.44
74561;BME280;62979;55.720;37.606;2023-09-07T07:10:01;100465.38;;;16.33;47.24
74561;BME280;62979;55.720;37.606;2023-09-07T07:12:30;100475.88;;;16.09;46.63
74561;BME280;62979;55.720;37.606;2023-09-07T07:14:59;100485.28;;;15.65;47.83
74561;BME280;62979;55.720;37.606;2023-09-07T07:17:26;100473.31;;;15.54;48.47
74561;BME280;62979;55.720;37.606;2023-09-07T07:19:53;100481.97;;;15.58;47.71
74561;BME280;62979;55.720;37.606;2023-09-07T07:22:20;100486.16;;;15.92;47.59
74561;BME280;62979;55.720;37.606;2023-09-07T07:24:48;100482.47;;;16.22;46.89
74561;BME280;62979;55.720;37.606;2023-09-07T07:27:15;100472.75;;;16.48;46.57
74561;BME280;62979;55.720;37.606;2023-09-07T07:29:42;100487.13;;;16.64;45.59
74561;BME280;62979;55.720;37.606;2023-09-07T07:32:10;100478.31;;;16.89;45.17
74561;BME280;62979;55.720;37.606;2023-09-07T07:34:37;100456.06;;;16.95;44.31
74561;BME280;62979;55.720;37.606;2023-09-07T07:37:04;100472.94;;;17.14;43.78
74561;BME280;62979;55.720;37.606;2023-09-07T07:39:31;100477.47;;;17.10;43.76
74561;BME280;62979;55.720;37.606;2023-09-07T07:41:59;100479.66;;;16.76;43.18
74561;BME280;62979;55.720;37.606;2023-09-07T07:44:26;100483.25;;;16.98;43.65
74561;BME280;62979;55.720;37.606;2023-09-07T07:46:53;100486.72;;;17.22;43.72
74561;BME280;62979;55.720;37.606;2023-09-07T07:49:20;100482.66;;;17.36;43.00
74561;BME280;62979;55.720;37.606;2023-09-07T07:51:47;100481.81;;;17.35;42.70
74561;BME280;62979;55.720;37.606;2023-09-07T07:54:14;100478.78;;;17.22;43.43
74561;BME280;62979;55.720;37.606;2023-09-07T07:56:41;100470.06;;;16.97;42.66
74561;BME280;62979;55.720;37.606;2023-09-07T07:59:10;100473.78;;;16.67;43.21
74561;BME280;62979;55.720;37.606;2023-09-07T08:01:36;100473.88;;;16.89;44.24
74561;BME280;62979;55.720;37.606;2023-09-07T08:04:04;100469.69;;;16.84;42.76
74561;BME280;62979;55.720;37.606;2023-09-07T08:06:32;100471.22;;;17.13;43.42
74561;BME280;62979;55.720;37.606;2023-09-07T08:09:00;100475.53;;;17.38;42.63
74561;BME280;62979;55.720;37.606;2023-09-07T08:11:26;100467.47;;;17.41;42.85
74561;BME280;62979;55.720;37.606;2023-09-07T08:13:53;100457.56;;;17.46;41.79
74561;BME280;62979;55.720;37.606;2023-09-07T08:16:22;100450.44;;;17.26;42.20
74561;BME280;62979;55.720;37.606;2023-09-07T08:18:48;100460.78;;;17.32;41.94
74561;BME280;62979;55.720;37.606;2023-09-07T08:21:15;100460.50;;;17.60;42.11
74561;BME280;62979;55.720;37.606;2023-09-07T08:23:43;100462.31;;;18.02;41.64
74561;BME280;62979;55.720;37.606;2023-09-07T08:26:10;100465.00;;;18.42;41.15
74561;BME280;62979;55.720;37.606;2023-09-07T08:28:38;100462.16;;;18.65;40.79
74561;BME280;62979;55.720;37.606;2023-09-07T08:31:04;100460.63;;;18.99;39.65
74561;BME280;62979;55.720;37.606;2023-09-07T08:33:33;100457.34;;;18.94;39.76
74561;BME280;62979;55.720;37.606;2023-09-07T08:36:05;100453.41;;;19.02;39.54
74561;BME280;62979;55.720;37.606;2023-09-07T08:38:34;100455.53;;;18.75;38.62
74561;BME280;62979;55.720;37.606;2023-09-07T08:41:02;100454.13;;;18.48;39.91
74561;BME280;62979;55.720;37.606;2023-09-07T08:43:33;100448.06;;;18.65;40.59
74561;BME280;62979;55.720;37.606;2023-09-07T08:46:09;100460.19;;;18.89;40.02
74561;BME280;62979;55.720;37.606;2023-09-07T08:48:42;100448.16;;;19.01;38.86
74561;BME280;62979;55.720;37.606;2023-09-07T08:51:11;100440.09;;;19.21;37.82
74561;BME280;62979;55.720;37.606;2023-09-07T08:53:43;100449.22;;;19.52;36.91
74561;BME280;62979;55.720;37.606;2023-09-07T08:56:12;100449.59;;;19.81;35.61
74561;BME280;62979;55.720;37.606;2023-09-07T08:58:39;100444.75;;;20.06;34.43
74561;BME280;62979;55.720;37.606;2023-09-07T09:01:06;100442.00;;;20.08;33.85
74561;BME280;62979;55.720;37.606;2023-09-07T09:03:35;100444.75;;;19.72;33.53
74561;BME280;62979;55.720;37.606;2023-09-07T09:06:04;100449.50;;;19.82;35.62
74561;BME280;62979;55.720;37.606;2023-09-07T09:08:41;100432.88;;;19.79;34.07
74561;BME280;62979;55.720;37.606;2023-09-07T09:11:09;100436.63;;;19.92;34.68
74561;BME280;62979;55.720;37.606;2023-09-07T09:13:36;100441.63;;;19.98;32.70
74561;BME280;62979;55.720;37.606;2023-09-07T09:16:03;100442.56;;;20.15;34.05
74561;BME280;62979;55.720;37.606;2023-09-07T09:18:30;100442.13;;;20.40;33.49
74561;BME280;62979;55.720;37.606;2023-09-07T09:20:57;100440.38;;;20.05;32.12
74561;BME280;62979;55.720;37.606;2023-09-07T09:23:29;100443.91;;;19.71;33.46
74561;BME280;62979;55.720;37.606;2023-09-07T09:25:57;100450.13;;;19.70;33.66
74561;BME280;62979;55.720;37.606;2023-09-07T09:28:23;100455.06;;;20.13;33.08
74561;BME280;62979;55.720;37.606;2023-09-07T09:30:52;100452.16;;;20.50;32.20
74561;BME280;62979;55.720;37.606;2023-09-07T09:33:19;100447.69;;;20.84;32.29
74561;BME280;62979;55.720;37.606;2023-09-07T09:35:47;100436.91;;;20.87;31.64
74561;BME280;62979;55.720;37.606;2023-09-07T09:38:16;100433.34;;;20.55;31.23
74561;BME280;62979;55.720;37.606;2023-09-07T09:40:45;100444.06;;;20.03;32.62
74561;BME280;62979;55.720;37.606;2023-09-07T09:43:12;100445.75;;;19.86;33.58
74561;BME280;62979;55.720;37.606;2023-09-07T09:45:40;100440.03;;;20.29;33.15
74561;BME280;62979;55.720;37.606;2023-09-07T09:48:08;100451.50;;;20.80;32.15
74561;BME280;62979;55.720;37.606;2023-09-07T09:50:36;100442.22;;;21.51;31.07
74561;BME280;62979;55.720;37.606;2023-09-07T09:53:06;100442.56;;;21.75;30.81
74561;BME280;62979;55.720;37.606;2023-09-07T09:55:34;100424.00;;;21.59;30.64
74561;BME280;62979;55.720;37.606;2023-09-07T09:58:02;100435.75;;;21.55;29.98
74561;BME280;62979;55.720;37.606;2023-09-07T10:00:30;100442.91;;;21.99;30.23
74561;BME280;62979;55.720;37.606;2023-09-07T10:03:07;100421.69;;;22.56;29.17
74561;BME280;62979;55.720;37.606;2023-09-07T10:05:37;100431.84;;;23.07;28.10
74561;BME280;62979;55.720;37.606;2023-09-07T10:08:09;100421.13;;;22.37;27.24
74561;BME280;62979;55.720;37.606;2023-09-07T10:10:40;100427.97;;;22.27;27.92
74561;BME280;62979;55.720;37.606;2023-09-07T10:13:13;100433.47;;;22.23;27.80
74561;BME280;62979;55.720;37.606;2023-09-07T10:15:41;100431.44;;;22.13;28.84
74561;BME280;62979;55.720;37.606;2023-09-07T10:18:12;100433.06;;;22.15;29.37
74561;BME280;62979;55.720;37.606;2023-09-07T10:20:51;100426.16;;;21.97;29.34
74561;BME280;62979;55.720;37.606;2023-09-07T10:23:21;100422.63;;;21.36;29.61
74561;BME280;62979;55.720;37.606;2023-09-07T10:25:50;100425.13;;;21.23;29.90
74561;BME280;62979;55.720;37.606;2023-09-07T10:28:21;100438.84;;;20.35;30.22
74561;BME280;62979;55.720;37.606;2023-09-07T10:31:02;100433.03;;;20.10;31.26
74561;BME280;62979;55.720;37.606;2023-09-07T10:33:30;100434.97;;;20.24;31.64
74561;BME280;62979;55.720;37.606;2023-09-07T10:35:58;100438.59;;;21.36;30.24
74561;BME280;62979;55.720;37.606;2023-09-07T10:38:26;100434.72;;;22.32;28.65
74561;BME280;62979;55.720;37.606;2023-09-07T10:40:58;100429.13;;;23.61;27.79
74561;BME280;62979;55.720;37.606;2023-09-07T10:43:28;100429.47;;;24.09;26.67
74561;BME280;62979;55.720;37.606;2023-09-07T10:45:57;100432.09;;;23.97;26.80
74561;BME280;62979;55.720;37.606;2023-09-07T10:48:29;100433.41;;;23.24;26.85
74561;BME280;62979;55.720;37.606;2023-09-07T10:50:57;100422.56;;;23.40;26.83
74561;BME280;62979;55.720;37.606;2023-09-07T10:53:25;100410.84;;;24.33;26.28
74561;BME280;62979;55.720;37.606;2023-09-07T10:55:54;100413.50;;;25.33;24.73
74561;BME280;62979;55.720;37.606;2023-09-07T10:58:29;100417.31;;;25.77;23.22
74561;BME280;62979;55.720;37.606;2023-09-07T11:00:58;100416.91;;;25.59;24.18
74561;BME280;62979;55.720;37.606;2023-09-07T11:03:29;100413.44;;;25.81;23.84
74561;BME280;62979;55.720;37.606;2023-09-07T11:05:59;100424.88;;;25.48;24.16
74561;BME280;62979;55.720;37.606;2023-09-07T11:08:30;100428.09;;;25.29;24.24
74561;BME280;62979;55.720;37.606;2023-09-07T11:10:58;100426.13;;;24.44;24.75
74561;BME280;62979;55.720;37.606;2023-09-07T11:13:25;100422.22;;;23.04;26.25
74561;BME280;62979;55.720;37.606;2023-09-07T11:15:56;100426.00;;;23.55;27.33
74561;BME280;62979;55.720;37.606;2023-09-07T11:18:24;100421.41;;;23.84;26.87
74561;BME280;62979;55.720;37.606;2023-09-07T11:20:53;100416.41;;;24.05;26.86
74561;BME280;62979;55.720;37.606;2023-09-07T11:23:21;100428.56;;;23.83;26.97
74561;BME280;62979;55.720;37.606;2023-09-07T11:25:50;100428.28;;;23.61;26.45
74561;BME280;62979;55.720;37.606;2023-09-07T11:28:18;100426.59;;;23.33;26.66
74561;BME280;62979;55.720;37.606;2023-09-07T11:30:54;100425.44;;;23.10;27.40
74561;BME280;62979;55.720;37.606;2023-09-07T11:33:22;100424.69;;;22.93;27.14
74561;BME280;62979;55.720;37.606;2023-09-07T11:35:49;100427.44;;;22.77;28.62
74561;BME280;62979;55.720;37.606;2023-09-07T11:38:17;100415.94;;;22.62;28.86
74561;BME280;62979;55.720;37.606;2023-09-07T11:40:44;100427.59;;;23.84;27.35
74561;BME280;62979;55.720;37.606;2023-09-07T11:43:11;100415.03;;;25.00;26.15
74561;BME280;62979;55.720;37.606;2023-09-07T11:45:39;100422.34;;;25.81;24.61
74561;BME280;62979;55.720;37.606;2023-09-07T11:48:08;100423.34;;;26.61;23.65
74561;BME280;62979;55.720;37.606;2023-09-07T11:50:36;100421.41;;;27.29;22.70
74561;BME280;62979;55.720;37.606;2023-09-07T11:53:04;100420.63;;;27.70;21.64
74561;BME280;62979;55.720;37.606;2023-09-07T11:55:31;100395.19;;;27.74;21.22
74561;BME280;62979;55.720;37.606;2023-09-07T11:57:57;100414.94;;;27.85;21.26
74561;BME280;62979;55.720;37.606;2023-09-07T12:00:24;100402.25;;;28.38;20.72
74561;BME280;62979;55.720;37.606;2023-09-07T12:02:51;100409.00;;;29.14;20.03
74561;BME280;62979;55.720;37.606;2023-09-07T12:05:19;100411.28;;;29.86;18.98
74561;BME280;62979;55.720;37.606;2023-09-07T12:07:46;100404.16;;;30.05;18.54
74561;BME280;62979;55.720;37.606;2023-09-07T12:10:13;100399.84;;;30.22;18.70
74561;BME280;62979;55.720;37.606;2023-09-07T12:12:41;100377.94;;;30.62;18.15
74561;BME280;62979;55.720;37.606;2023-09-07T12:15:09;100403.28;;;30.89;17.25
74561;BME280;62979;55.720;37.606;2023-09-07T12:17:37;100391.41;;;29.97;17.98
74561;BME280;62979;55.720;37.606;2023-09-07T12:20:05;100397.09;;;29.45;18.54
74561;BME280;62979;55.720;37.606;2023-09-07T12:22:37;100395.53;;;29.14;17.75
74561;BME280;62979;55.720;37.606;2023-09-07T12:25:04;100406.50;;;29.41;17.90
74561;BME280;62979;55.720;37.606;2023-09-07T12:27:33;100397.41;;;30.28;16.95
74561;BME280;62979;55.720;37.606;2023-09-07T12:30:00;100394.31;;;30.61;16.47
74561;BME280;62979;55.720;37.606;2023-09-07T12:32:32;100401.50;;;30.42;16.57
74561;BME280;62979;55.720;37.606;2023-09-07T12:34:59;100407.16;;;30.77;16.45
74561;BME280;62979;55.720;37.606;2023-09-07T12:37:26;100387.91;;;30.24;16.79
74561;BME280;62979;55.720;37.606;2023-09-07T12:39:54;100389.25;;;30.48;17.12
74561;BME280;62979;55.720;37.606;2023-09-07T12:42:21;100395.91;;;30.81;16.56
74561;BME280;62979;55.720;37.606;2023-09-07T12:44:49;100381.44;;;30.45;17.20